• Join FlightAware (Why Join?)
  • Login
  • US Flag 
04:22PM EDT


 

Airport Tracker/Info


-or-


 

Live Flight TrackerFlight Track Log ✈ N8147X ✈ 16-Jul-2013 ✈ KCKB - KJWN

Flight Track Log - Related Links

Times and Time Zones

All times are in EDT time to prevent confusion due to time zone crossing. See the N8147X flight status page for this flight to view local times or setup timezone preferences in your user account.

Time Position Orientation Groundspeed Altitude Reporting Facility
EDT Latitude Longitude Course Direction KTS MPH feet Rate Location/Type
05:10PM 39.2211 -80.3194 233° Southwest 80 92 3,800  Level Indianapolis Center
05:11PM 39.2047 -80.3475 233° Southwest 94 108 4,300 420 Climbing Indianapolis Center
05:12PM 39.1906 -80.3753 237° Southwest 94 108 4,700 480 Climbing Indianapolis Center
05:13PM 39.1728 -80.4100 237° Southwest 95 109 5,300 480 Climbing Indianapolis Center
05:14PM 39.1564 -80.4383 233° Southwest 97 112 5,700 360 Climbing Indianapolis Center
05:15PM 39.1403 -80.4675 235° Southwest 99 114 6,100 300 Climbing Indianapolis Center
05:16PM 39.1236 -80.4958 233° Southwest 99 114 6,400 300 Climbing Indianapolis Center
05:17PM 39.1069 -80.5250 234° Southwest 100 115 6,800 360 Climbing Indianapolis Center
05:18PM 39.0908 -80.5550 235° Southwest 100 115 7,200 300 Climbing Indianapolis Center
05:19PM 39.0733 -80.5833 232° Southwest 101 116 7,500 300 Climbing Indianapolis Center
05:20PM 39.0531 -80.6183 233° Southwest 101 116 7,900 240 Climbing Indianapolis Center
05:21PM 39.0358 -80.6486 234° Southwest 103 119 8,000  Climbing Indianapolis Center
05:22PM 39.0150 -80.6869 235° Southwest 122 140 8,000  Level Indianapolis Center
05:23PM 38.9928 -80.7264 234° Southwest 132 152 8,000  Level Indianapolis Center
05:24PM 38.9706 -80.7633 232° Southwest 132 152 8,000  Level Indianapolis Center
05:25PM 38.9494 -80.7992 233° Southwest 128 147 8,100  Climbing Indianapolis Center
05:26PM 38.9283 -80.8364 234° Southwest 128 147 8,100  Level Indianapolis Center
05:27PM 38.9028 -80.8831 235° Southwest 130 150 8,200 -60 Climbing Indianapolis Center
05:28PM 38.8806 -80.9206 233° Southwest 132 152 8,000 -60 Descending Indianapolis Center
05:29PM 38.8575 -80.9581 232° Southwest 133 153 8,100  Climbing Indianapolis Center
05:30PM 38.8356 -80.9978 235° Southwest 135 155 8,100  Level Indianapolis Center
05:31PM 38.8111 -81.0356 230° Southwest 136 157 8,100 -60 Level Indianapolis Center
05:32PM 38.7878 -81.0744 232° Southwest 137 158 8,000 -60 Descending Indianapolis Center
05:33PM 38.7639 -81.1119 231° Southwest 136 157 8,000  Level Indianapolis Center
05:34PM 38.7361 -81.1569 232° Southwest 133 153 8,000  Level Indianapolis Center
05:35PM 38.7122 -81.1947 231° Southwest 135 155 8,000  Level Indianapolis Center
05:36PM 38.6892 -81.2328 232° Southwest 135 155 8,000  Level Indianapolis Center
05:37PM 38.6653 -81.2700 231° Southwest 135 155 8,000  Level Indianapolis Center
05:38PM 38.6422 -81.3072 232° Southwest 132 152 8,100  Climbing Indianapolis Center
05:39PM 38.6186 -81.3439 231° Southwest 133 153 8,000 -60 Descending Indianapolis Center
05:40PM 38.5953 -81.3825 232° Southwest 136 157 8,000  Level Indianapolis Center
05:41PM 38.5714 -81.4200 231° Southwest 135 155 8,000  Level Indianapolis Center
05:43PM 38.5478 -81.4578 231° Southwest 135 155 8,000 -60 Level Indianapolis Center
05:44PM 38.5183 -81.5025 230° Southwest 136 157 7,900 -60 Descending Indianapolis Center
05:45PM 38.4953 -81.5403 232° Southwest 135 155 7,900  Level Indianapolis Center
05:46PM 38.4711 -81.5775 230° Southwest 134 154 7,900  Level Indianapolis Center
05:47PM 38.4492 -81.6128 232° Southwest 128 147 8,000 60 Climbing Indianapolis Center
05:48PM 38.4253 -81.6497 230° Southwest 133 153 8,100  Climbing Indianapolis Center
05:49PM 38.4022 -81.6864 231° Southwest 133 153 8,100  Level Indianapolis Center
05:50PM 38.3786 -81.7228 230° Southwest 132 152 8,100  Level Indianapolis Center
05:51PM 38.3506 -81.7672 231° Southwest 134 154 8,100  Level Indianapolis Center
05:52PM 38.3272 -81.8056 232° Southwest 135 155 8,100 -60 Level Indianapolis Center
05:53PM 38.3033 -81.8425 231° Southwest 135 155 8,000 -60 Descending Indianapolis Center
05:54PM 38.2800 -81.8789 231° Southwest 133 153 8,000  Level Indianapolis Center
05:55PM 38.2569 -81.9158 232° Southwest 133 153 8,000  Level Indianapolis Center
05:56PM 38.2333 -81.9536 231° Southwest 135 155 8,000  Level Indianapolis Center
05:57PM 38.2106 -81.9906 232° Southwest 133 153 8,000  Level Indianapolis Center
05:58PM 38.1822 -82.0339 230° Southwest 133 153 8,000  Level Indianapolis Center
05:59PM 38.1597 -82.0697 231° Southwest 130 150 8,000  Level Indianapolis Center
06:00PM 38.1369 -82.1042 230° Southwest 128 147 8,000  Level Indianapolis Center
06:01PM 38.1153 -82.1406 233° Southwest 128 147 8,000  Level Indianapolis Center
06:02PM 38.0903 -82.1789 230° Southwest 129 148 8,000  Level Indianapolis Center
06:03PM 38.0675 -82.2136 230° Southwest 128 147 8,000  Level Indianapolis Center
06:04PM 38.0453 -82.2475 230° Southwest 126 145 8,100  Climbing Indianapolis Center
06:05PM 38.0236 -82.2839 233° Southwest 128 147 8,000  Descending Indianapolis Center
06:06PM 37.9969 -82.3261 231° Southwest 130 150 8,100  Climbing Indianapolis Center
06:07PM 37.9744 -82.3597 230° Southwest 127 146 8,000  Descending Indianapolis Center
06:08PM 37.9517 -82.3947 230° Southwest 127 146 8,100 60 Climbing Indianapolis Center
06:09PM 37.9297 -82.4300 232° Southwest 127 146 8,200  Climbing Indianapolis Center
06:10PM 37.9075 -82.4642 231° Southwest 126 145 8,200  Level Indianapolis Center
06:11PM 37.8856 -82.4986 231° Southwest 125 144 8,200  Level Indianapolis Center
06:12PM 37.8594 -82.5386 230° Southwest 125 144 8,200 -60 Level Indianapolis Center
06:13PM 37.8369 -82.5728 230° Southwest 126 145 8,100 -60 Descending Indianapolis Center
06:15PM 37.8153 -82.6086 233° Southwest 127 146 8,100  Level Indianapolis Center
06:16PM 37.7928 -82.6425 230° Southwest 126 145 8,100  Level Indianapolis Center
06:17PM 37.7703 -82.6781 231° Southwest 128 147 8,100  Level Indianapolis Center
06:18PM 37.7478 -82.7106 229° Southwest 125 144 8,100  Level Indianapolis Center
06:19PM 37.7233 -82.7525 234° Southwest 126 145 8,100  Level Indianapolis Center
06:20PM 37.6992 -82.7861 228° Southwest 128 147 8,100  Level Indianapolis Center
06:21PM 37.6781 -82.8206 232° Southwest 125 144 8,100  Level Indianapolis Center
06:22PM 37.6556 -82.8544 230° Southwest 125 144 8,100  Level Indianapolis Center
06:23PM 37.6331 -82.8883 230° Southwest 126 145 8,100  Level Indianapolis Center
06:24PM 37.6114 -82.9242 233° Southwest 128 147 8,100  Level Indianapolis Center
06:25PM 37.5844 -82.9639 229° Southwest 128 147 8,100  Level Indianapolis Center
06:26PM 37.5631 -82.9986 232° Southwest 126 145 8,100  Level Indianapolis Center
06:27PM 37.5397 -83.0322 229° Southwest 127 146 8,100  Level Indianapolis Center
06:28PM 37.5181 -83.0675 232° Southwest 128 147 8,100 -60 Level Indianapolis Center
06:29PM 37.4958 -83.1025 231° Southwest 128 147 8,000 -60 Descending Indianapolis Center
06:30PM 37.4683 -83.1411 228° Southwest 128 147 8,000  Level Indianapolis Center
06:31PM 37.4464 -83.1767 232° Southwest 128 147 8,100  Climbing Indianapolis Center
06:32PM 37.4272 -83.2136 237° Southwest 126 145 8,100 -60 Level Indianapolis Center
06:33PM 37.4061 -83.2497 234° Southwest 128 147 8,000 -60 Descending Indianapolis Center
06:34PM 37.3822 -83.2825 227° Southwest 128 147 8,000  Level Indianapolis Center
06:35PM 37.3631 -83.3289 243° Southwest 127 146 8,000  Level Indianapolis Center
06:36PM 37.3467 -83.3681 242° Southwest 128 147 8,000  Level Indianapolis Center
06:37PM 37.3297 -83.4069 241° Southwest 127 146 8,000 -60 Level Indianapolis Center
06:38PM 37.3044 -83.4369 223° Southwest 128 147 7,900 -60 Descending Indianapolis Center
06:39PM 37.2964 -83.4797 257° West 126 145 7,900  Level Indianapolis Center
06:40PM 37.2839 -83.5200 249° West 125 144 8,000  Climbing Indianapolis Center
06:41PM 37.2650 -83.5656 242° Southwest 125 144 8,000  Level Indianapolis Center
06:42PM 37.2492 -83.6053 243° Southwest 126 145 8,100  Climbing Indianapolis Center
06:43PM 37.2317 -83.6442 241° Southwest 127 146 8,000 -60 Descending Indianapolis Center
06:44PM 37.2161 -83.6831 243° Southwest 126 145 8,000  Level Indianapolis Center
06:45PM 37.1997 -83.7217 242° Southwest 125 144 8,000  Level Indianapolis Center
06:47PM 37.1808 -83.7672 243° Southwest 126 145 8,100  Climbing Indianapolis Center
06:48PM 37.1647 -83.8069 243° Southwest 127 146 8,100  Level Indianapolis Center
06:49PM 37.1478 -83.8464 242° Southwest 129 148 8,200  Climbing Indianapolis Center
06:50PM 37.1311 -83.8847 241° Southwest 126 145 8,200 -60 Level Indianapolis Center
06:51PM 37.1147 -83.9253 243° Southwest 129 148 8,100  Descending Indianapolis Center
06:52PM 37.0978 -83.9644 242° Southwest 129 148 8,200  Climbing Indianapolis Center
06:53PM 37.0781 -84.0117 242° Southwest 130 150 8,100 -60 Descending Indianapolis Center
06:54PM 37.0622 -84.0514 243° Southwest 128 147 8,100  Level Indianapolis Center
06:55PM 37.0447 -84.0914 241° Southwest 129 148 8,100  Level Indianapolis Center
06:56PM 37.0283 -84.1303 242° Southwest 128 147 8,100  Level Indianapolis Center
06:57PM 37.0106 -84.1711 241° Southwest 131 151 8,100  Level Indianapolis Center
06:58PM 36.9936 -84.2100 241° Southwest 128 147 8,100  Level Indianapolis Center
06:59PM 36.9747 -84.2556 243° Southwest 127 146 8,100  Level Indianapolis Center
07:00PM 36.9575 -84.2956 242° Southwest 129 148 8,100 -60 Level Indianapolis Center
07:01PM 36.9403 -84.3367 242° Southwest 132 152 8,000 -60 Descending Indianapolis Center
07:02PM 36.9242 -84.3767 243° Southwest 131 151 8,000  Level Indianapolis Center
07:03PM 36.9069 -84.4172 242° Southwest 132 152 8,100  Climbing Indianapolis Center
07:04PM 36.8894 -84.4569 241° Southwest 131 151 8,100  Level Indianapolis Center
07:05PM 36.8686 -84.5042 241° Southwest 132 152 8,100  Level Indianapolis Center
07:06PM 36.8533 -84.5411 243° Southwest 130 150 8,100  Level Indianapolis Center
07:07PM 36.8361 -84.5822 242° Southwest 132 152 8,100  Level Indianapolis Center
07:08PM 36.8183 -84.6222 241° Southwest 132 152 8,100 -60 Level Indianapolis Center
07:09PM 36.8017 -84.6617 242° Southwest 130 150 8,000 -60 Descending Indianapolis Center
07:10PM 36.7811 -84.7094 242° Southwest 130 150 8,000  Level Indianapolis Center
07:11PM 36.7650 -84.7489 243° Southwest 128 147 8,000  Level Indianapolis Center
07:12PM 36.7478 -84.7881 241° Southwest 129 148 8,100  Climbing Indianapolis Center
07:13PM 36.7294 -84.8267 239° Southwest 130 150 8,100 -60 Level Indianapolis Center
07:14PM 36.7142 -84.8658 244° Southwest 127 146 8,000  Descending Indianapolis Center
07:15PM 36.6969 -84.9044 241° Southwest 127 146 8,100  Climbing Indianapolis Center
07:16PM 36.6772 -84.9497 242° Southwest 125 144 8,100  Level Indianapolis Center
07:17PM 36.6606 -84.9875 241° Southwest 125 144 8,100  Level Indianapolis Center
07:18PM 36.6444 -85.0250 242° Southwest 124 143 8,100  Level Indianapolis Center
07:19PM 36.6294 -85.0619 243° Southwest 121 139 8,100  Level Indianapolis Center
07:21PM 36.6125 -85.0992 240° Southwest 123 142 8,200  Climbing Indianapolis Center
07:22PM 36.5967 -85.1364 242° Southwest 122 140 8,100  Descending Indianapolis Center
07:23PM 36.5808 -85.1739 242° Southwest 123 142 8,200  Climbing Indianapolis Center
07:24PM 36.5703 -85.2142 252° West 123 142 8,100 -60 Descending Indianapolis Center
07:25PM 36.5547 -85.2622 248° West 124 143 8,100  Level Indianapolis Center
07:26PM 36.5436 -85.3036 252° West 125 144 8,100  Level Indianapolis Center
07:27PM 36.5317 -85.3442 250° West 124 143 8,100  Level Indianapolis Center
07:28PM 36.5200 -85.3847 250° West 125 144 8,100  Level Indianapolis Center
07:29PM 36.5081 -85.4258 250° West 126 145 8,100  Level Indianapolis Center
07:30PM 36.4972 -85.4669 252° West 126 145 8,100  Level Indianapolis Center
07:31PM 36.4850 -85.5075 249° West 126 145 8,100  Level Indianapolis Center
07:32PM 36.4700 -85.5575 250° West 127 146 8,100 -120 Level Indianapolis Center
07:33PM 36.4578 -85.5989 250° West 128 147 7,900 -300 Descending Indianapolis Center
07:34PM 36.4450 -85.6436 250° West 136 157 7,500 -420 Descending Indianapolis Center
07:35PM 36.4322 -85.6867 250° West 134 154 7,100 -420 Descending Indianapolis Center
07:36PM 36.4189 -85.7308 249° West 137 158 6,700 -420 Descending Indianapolis Center
07:37PM 36.4058 -85.7764 250° West 139 160 6,300 -300 Descending Indianapolis Center
07:38PM 36.3933 -85.8192 250° West 135 155 6,100 -180 Descending Indianapolis Center
07:39PM 36.3794 -85.8639 249° West 134 154 6,000 -120 Descending Indianapolis Center
07:40PM 36.3667 -85.9164 253° West 133 153 5,900 -120 Descending Memphis Center